Time;durP1;ratioP1;P1;durP2;ratioP2;P2;SDS_P1;SDS_P2;PMS_P1;PMS_P2;Temp;Humidity;BMP_temperature;BMP_pressure;BME280_temperature;BME280_humidity;BME280_pressure;Samples;Min_cycle;Max_cycle;Signal;HPM_P1;HPM_P2
2022/06/01 00:00:58;;;;;;;13.20;6.67;;;17.70;40.90;;;;;;5031812;28;20432;-74
2022/06/01 00:03:24;;;;;;;16.50;6.00;;;17.80;39.60;;;;;;5031964;28;20546;-74
2022/06/01 00:05:53;;;;;;;7.17;6.03;;;17.60;41.20;;;;;;5025364;28;20208;-74
2022/06/01 00:08:20;;;;;;;9.13;6.60;;;17.80;39.60;;;;;;5026329;28;20428;-73
2022/06/01 00:10:46;;;;;;;7.60;6.10;;;17.70;40.40;;;;;;5020345;28;20555;-74
2022/06/01 00:13:12;;;;;;;11.30;6.80;;;17.60;40.20;;;;;;5030823;28;20525;-74
2022/06/01 00:15:38;;;;;;;10.30;6.10;;;17.40;41.40;;;;;;5024808;28;20550;-74
2022/06/01 00:18:03;;;;;;;11.03;6.60;;;17.30;41.70;;;;;;5024493;28;20267;-74
2022/06/01 00:20:29;;;;;;;9.73;7.13;;;17.20;41.40;;;;;;5031915;28;20649;-74
2022/06/01 00:22:56;;;;;;;9.10;6.97;;;17.10;42.30;;;;;;5026220;28;20657;-75
2022/06/01 00:25:22;;;;;;;9.50;7.00;;;17.30;40.60;;;;;;5029909;28;20518;-73
2022/06/01 00:27:48;;;;;;;9.63;6.50;;;17.30;41.00;;;;;;5032731;28;20799;-75
2022/06/01 00:30:15;;;;;;;9.10;6.70;;;17.30;41.40;;;;;;5027586;28;20971;-74
2022/06/01 00:32:41;;;;;;;7.73;6.10;;;17.10;41.30;;;;;;5030774;28;20431;-74
2022/06/01 00:35:14;;;;;;;8.70;6.17;;;17.00;41.40;;;;;;5030730;28;20427;-75
2022/06/01 00:37:41;;;;;;;7.37;5.80;;;17.40;39.20;;;;;;5033675;28;20455;-74
2022/06/01 00:40:08;;;;;;;8.03;6.20;;;17.20;40.90;;;;;;5034043;28;20425;-74
2022/06/01 00:42:37;;;;;;;12.10;6.60;;;17.10;42.90;;;;;;5028031;28;20457;-74
2022/06/01 00:45:04;;;;;;;13.37;5.73;;;17.10;41.40;;;;;;5025254;28;20464;-74
2022/06/01 00:47:30;;;;;;;9.70;6.43;;;17.20;40.60;;;;;;5023028;28;20941;-75
2022/06/01 00:50:09;;;;;;;9.63;6.37;;;17.10;41.20;;;;;;5033702;28;20438;-75
2022/06/01 00:52:40;;;;;;;8.30;6.00;;;17.20;40.20;;;;;;5025325;28;20212;-74
2022/06/01 00:55:06;;;;;;;18.20;6.33;;;17.00;41.20;;;;;;5030008;28;20471;-75
2022/06/01 00:57:32;;;;;;;8.80;6.37;;;17.10;40.30;;;;;;5027002;28;20471;-75
2022/06/01 01:00:01;;;;;;;8.90;6.30;;;17.20;41.50;;;;;;5021912;28;20447;-74
2022/06/01 01:02:29;;;;;;;6.90;5.90;;;17.10;40.80;;;;;;5024464;28;20785;-74
2022/06/01 01:04:55;;;;;;;12.63;6.13;;;17.00;41.80;;;;;;5027315;28;20907;-74
2022/06/01 01:07:21;;;;;;;13.47;6.07;;;16.80;41.90;;;;;;5032769;28;20801;-73
2022/06/01 01:09:46;;;;;;;9.83;6.40;;;17.00;40.90;;;;;;5033088;28;20449;-74
2022/06/01 01:12:12;;;;;;;8.47;5.90;;;17.00;42.00;;;;;;5027047;28;20187;-74
2022/06/01 01:14:43;;;;;;;9.73;6.40;;;16.90;40.70;;;;;;5022365;28;20177;-74
2022/06/01 01:17:10;;;;;;;8.20;6.30;;;16.90;41.80;;;;;;5027896;28;20463;-74
2022/06/01 01:19:48;;;;;;;14.33;7.53;;;16.90;42.10;;;;;;5021983;28;20790;-74
2022/06/01 01:22:29;;;;;;;10.70;6.50;;;17.00;40.40;;;;;;5027607;28;20831;-74
2022/06/01 01:25:16;;;;;;;11.30;7.20;;;17.00;41.40;;;;;;5026877;28;20439;-75
2022/06/01 01:27:43;;;;;;;11.87;7.40;;;16.80;42.00;;;;;;5024527;28;20505;-73
2022/06/01 01:30:38;;;;;;;15.60;7.53;;;16.60;42.00;;;;;;5032253;28;20435;-74
2022/06/01 01:33:11;;;;;;;9.50;7.07;;;16.90;40.70;;;;;;5024582;28;20481;-74
2022/06/01 01:35:37;;;;;;;10.30;7.13;;;17.00;40.40;;;;;;5012340;28;20485;-74
2022/06/01 01:38:07;;;;;;;10.57;7.10;;;16.70;41.00;;;;;;5024550;28;20527;-74
2022/06/01 01:40:34;;;;;;;10.13;7.07;;;16.70;41.00;;;;;;5033104;28;20490;-74
2022/06/01 01:43:01;;;;;;;9.70;7.10;;;16.90;39.80;;;;;;5024590;28;20434;-73
2022/06/01 01:45:32;;;;;;;11.20;7.47;;;17.10;40.10;;;;;;5032291;28;20434;-74
2022/06/01 01:47:58;;;;;;;15.20;7.33;;;16.80;40.60;;;;;;5024637;28;21115;-74
2022/06/01 01:50:25;;;;;;;20.40;6.27;;;16.80;40.90;;;;;;5027150;28;21006;-73
2022/06/01 01:52:51;;;;;;;11.00;6.37;;;16.80;40.00;;;;;;5021039;28;20432;-71
2022/06/01 01:55:37;;;;;;;12.03;6.50;;;16.70;39.50;;;;;;5024108;28;20811;-74
2022/06/01 01:58:11;;;;;;;12.73;7.53;;;16.70;39.30;;;;;;5023959;28;20424;-77
2022/06/01 02:00:43;;;;;;;9.00;6.50;;;16.50;41.10;;;;;;5026764;28;20424;-74
2022/06/01 02:03:22;;;;;;;9.33;6.50;;;16.30;42.20;;;;;;5032079;28;20455;-74
2022/06/01 02:06:04;;;;;;;8.53;6.30;;;16.20;41.40;;;;;;5030536;28;20879;-73
2022/06/01 02:08:34;;;;;;;8.90;6.43;;;16.20;42.10;;;;;;5003371;28;20426;-74
2022/06/01 02:14:05;;;;;;;8.90;6.27;;;16.20;41.60;;;;;;5031997;28;20414;-73
2022/06/01 02:16:38;;;;;;;10.00;6.63;;;16.10;41.60;;;;;;5016376;28;20481;-73
2022/06/01 02:19:08;;;;;;;9.83;6.67;;;16.20;42.20;;;;;;5016967;28;20450;-74
2022/06/01 02:21:34;;;;;;;11.90;7.70;;;16.10;43.00;;;;;;5031758;28;21247;-74
2022/06/01 02:24:01;;;;;;;9.60;6.60;;;16.30;41.80;;;;;;5029446;28;20843;-74
2022/06/01 02:26:28;;;;;;;11.90;7.53;;;16.50;40.60;;;;;;5030145;28;20485;-74
2022/06/01 02:29:00;;;;;;;9.50;6.77;;;16.00;41.50;;;;;;5028462;28;20443;-74
2022/06/01 02:31:28;;;;;;;12.73;6.60;;;16.20;42.60;;;;;;5028989;28;20422;-74
2022/06/01 02:33:56;;;;;;;9.33;7.43;;;16.30;41.90;;;;;;5031143;28;20434;-74
2022/06/01 02:36:24;;;;;;;10.97;6.87;;;16.20;42.60;;;;;;5020906;28;20494;-74
2022/06/01 02:38:52;;;;;;;12.70;6.50;;;16.00;42.60;;;;;;5027349;28;20472;-74
2022/06/01 02:44:02;;;;;;;9.67;6.43;;;15.90;42.70;;;;;;5027333;28;20898;-74
2022/06/01 02:46:28;;;;;;;11.10;7.23;;;15.90;43.00;;;;;;5024099;28;20447;-74
2022/06/01 02:48:55;;;;;;;9.20;6.60;;;16.10;41.10;;;;;;5031725;28;20188;-74
2022/06/01 02:51:22;;;;;;;14.20;6.90;;;16.30;39.90;;;;;;5027400;28;20519;-75
2022/06/01 02:53:48;;;;;;;10.17;6.60;;;16.30;40.70;;;;;;5027990;28;20445;-74
2022/06/01 02:56:15;;;;;;;10.03;7.27;;;16.30;40.40;;;;;;5022668;28;20466;-74
2022/06/01 02:58:41;;;;;;;11.33;7.43;;;16.40;40.90;;;;;;5028722;28;20471;-74
2022/06/01 03:01:07;;;;;;;16.73;7.27;;;16.00;40.60;;;;;;5019853;28;20923;-74
2022/06/01 03:03:34;;;;;;;9.70;6.60;;;15.90;41.50;;;;;;5020267;28;20808;-75
2022/06/01 03:06:00;;;;;;;11.73;6.77;;;15.80;43.00;;;;;;5020118;28;20825;-74
2022/06/01 03:08:26;;;;;;;10.87;7.20;;;15.80;42.50;;;;;;5023244;28;20423;-75
2022/06/01 03:10:52;;;;;;;9.90;6.53;;;16.10;43.00;;;;;;5027542;28;20180;-74
2022/06/01 03:13:20;;;;;;;10.40;6.63;;;15.70;42.70;;;;;;5019674;28;20177;-73
2022/06/01 03:15:45;;;;;;;9.90;7.13;;;15.70;43.00;;;;;;5020377;28;20470;-74
2022/06/01 03:18:11;;;;;;;15.07;10.90;;;16.00;41.00;;;;;;5025065;28;20505;-74
2022/06/01 03:20:38;;;;;;;14.30;9.07;;;15.90;40.80;;;;;;5026971;28;20183;-74
2022/06/01 03:23:04;;;;;;;10.73;7.17;;;18.20;44.60;;;;;;5023199;28;20168;-74
2022/06/01 03:25:30;;;;;;;11.20;8.03;;;15.50;43.40;;;;;;5023292;28;20866;-73
2022/06/01 03:27:59;;;;;;;10.20;7.70;;;15.40;43.80;;;;;;5021527;28;20429;-74
2022/06/01 03:30:26;;;;;;;13.13;7.80;;;15.50;43.80;;;;;;5019778;28;20522;-74
2022/06/01 03:32:53;;;;;;;18.23;8.23;;;15.70;42.20;;;;;;5022873;28;20892;-74
2022/06/01 03:35:22;;;;;;;15.90;8.70;;;15.40;43.40;;;;;;5027367;28;20434;-72
2022/06/01 03:37:48;;;;;;;10.20;7.50;;;15.40;44.20;;;;;;5020350;28;20476;-74
2022/06/01 03:40:17;;;;;;;14.40;7.93;;;15.30;44.70;;;;;;5020862;28;20429;-74
2022/06/01 03:42:43;;;;;;;11.20;7.97;;;15.30;44.90;;;;;;5028803;28;20437;-73
2022/06/01 03:47:55;;;;;;;10.77;8.10;;;15.30;45.50;;;;;;5020807;28;20445;-75
2022/06/01 03:50:23;;;;;;;13.37;8.20;;;15.50;44.90;;;;;;5027011;28;20517;-75
2022/06/01 03:52:50;;;;;;;11.90;8.00;;;15.50;44.60;;;;;;5026928;28;20990;-75
2022/06/01 03:55:16;;;;;;;13.60;8.67;;;15.50;44.70;;;;;;5022315;28;20473;-75
2022/06/01 03:57:43;;;;;;;11.00;7.83;;;15.50;45.20;;;;;;5021776;28;20478;-74
2022/06/01 04:00:14;;;;;;;11.40;8.40;;;15.50;44.60;;;;;;5014872;28;20961;-74
2022/06/01 04:02:40;;;;;;;13.07;8.20;;;15.60;45.20;;;;;;5016357;28;20782;-73
2022/06/01 04:05:07;;;;;;;14.43;8.13;;;14.60;47.50;;;;;;5021215;28;21926;-73
2022/06/01 04:07:33;;;;;;;12.27;8.13;;;14.90;48.80;;;;;;5021442;28;20443;-74
2022/06/01 04:09:58;;;;;;;14.10;8.70;;;15.30;47.60;;;;;;5030599;28;20440;-74
2022/06/01 04:12:24;;;;;;;12.57;8.13;;;15.40;45.90;;;;;;5022247;28;20185;-75
2022/06/01 04:14:49;;;;;;;10.50;8.27;;;15.60;45.40;;;;;;5016587;28;20638;-74
2022/06/01 04:17:15;;;;;;;16.97;8.33;;;15.60;45.80;;;;;;5020188;28;20213;-74
2022/06/01 04:19:41;;;;;;;12.63;8.90;;;15.70;45.20;;;;;;5024129;28;20187;-73
2022/06/01 04:22:08;;;;;;;13.63;8.00;;;15.80;44.20;;;;;;5021637;28;20212;-73
2022/06/01 04:24:35;;;;;;;16.73;8.73;;;16.10;45.60;;;;;;5022130;28;20226;-74
2022/06/01 04:27:01;;;;;;;13.43;8.67;;;16.10;44.50;;;;;;5024757;28;20466;-74
2022/06/01 04:29:27;;;;;;;14.23;9.30;;;16.00;44.20;;;;;;5025563;28;20814;-75
2022/06/01 04:32:03;;;;;;;17.17;9.93;;;16.20;43.30;;;;;;5023129;28;20197;-73
2022/06/01 04:34:29;;;;;;;12.00;8.90;;;16.40;43.80;;;;;;5018278;28;20437;-74
2022/06/01 04:36:55;;;;;;;14.03;8.40;;;16.30;44.00;;;;;;5025022;28;20469;-75
2022/06/01 04:39:21;;;;;;;13.30;9.90;;;16.30;43.90;;;;;;5030612;28;20986;-74
2022/06/01 04:41:47;;;;;;;17.00;9.70;;;16.30;43.60;;;;;;5024928;28;20612;-74
2022/06/01 04:44:13;;;;;;;14.27;9.43;;;16.20;44.30;;;;;;5026536;28;20435;-74
2022/06/01 04:46:38;;;;;;;16.10;9.50;;;16.20;44.90;;;;;;5030676;28;20276;-74
2022/06/01 04:49:04;;;;;;;16.23;8.63;;;16.30;45.10;;;;;;5030874;28;20271;-75
2022/06/01 04:51:30;;;;;;;15.60;9.10;;;16.30;44.20;;;;;;5033458;28;20195;-75
2022/06/01 04:53:55;;;;;;;11.47;8.20;;;16.30;43.20;;;;;;5033577;28;20434;-74
2022/06/01 04:56:21;;;;;;;13.47;8.23;;;16.10;43.20;;;;;;5027279;28;20204;-72
2022/06/01 04:58:47;;;;;;;15.37;9.93;;;16.50;44.70;;;;;;5025000;28;20186;-74
2022/06/01 05:01:12;;;;;;;14.97;9.80;;;16.50;44.20;;;;;;5028707;28;20210;-73
2022/06/01 05:03:38;;;;;;;14.53;10.00;;;16.00;43.40;;;;;;5025081;28;20233;-73
2022/06/01 05:06:04;;;;;;;15.90;10.20;;;15.20;46.70;;;;;;5029412;28;20200;-73
2022/06/01 05:08:29;;;;;;;14.30;8.80;;;15.70;46.40;;;;;;5028663;28;20553;-74
2022/06/01 05:10:55;;;;;;;16.23;9.70;;;16.00;44.40;;;;;;5028227;28;20228;-73
2022/06/01 05:13:21;;;;;;;22.00;10.43;;;16.00;44.00;;;;;;5028689;28;20419;-73
2022/06/01 05:15:53;;;;;;;16.60;10.20;;;16.00;45.20;;;;;;5024187;28;20249;-74
2022/06/01 05:18:19;;;;;;;16.97;10.87;;;16.20;43.70;;;;;;5020574;28;20667;-73
2022/06/01 05:20:45;;;;;;;17.90;10.93;;;15.80;44.70;;;;;;5022850;28;20430;-74
2022/06/01 05:23:12;;;;;;;17.13;10.53;;;15.50;47.70;;;;;;5032915;28;20423;-72
2022/06/01 05:25:37;;;;;;;15.00;11.07;;;15.60;47.40;;;;;;5025254;28;20446;-73
2022/06/01 05:28:03;;;;;;;17.23;11.30;;;16.20;45.60;;;;;;5022275;28;20465;-73
2022/06/01 05:30:29;;;;;;;24.97;11.70;;;16.70;44.20;;;;;;5032370;28;20549;-73
2022/06/01 05:32:54;;;;;;;17.20;11.50;;;16.20;42.90;;;;;;5024245;28;20178;-73
2022/06/01 05:35:20;;;;;;;18.80;12.23;;;17.00;43.50;;;;;;5028532;28;20186;-73
2022/06/01 05:37:46;;;;;;;18.53;11.80;;;17.00;43.70;;;;;;5022563;28;20251;-74
2022/06/01 05:40:12;;;;;;;16.07;11.37;;;17.20;43.10;;;;;;5024543;28;20436;-72
2022/06/01 05:42:37;;;;;;;23.20;11.07;;;17.50;42.00;;;;;;5022621;28;20188;-73
2022/06/01 05:45:04;;;;;;;27.63;11.20;;;17.00;41.90;;;;;;5011585;28;20797;-73
2022/06/01 05:47:29;;;;;;;19.87;11.50;;;16.40;43.80;;;;;;5021032;28;20199;-74
2022/06/01 05:49:55;;;;;;;18.33;11.20;;;16.30;45.00;;;;;;5030336;28;20935;-71
2022/06/01 05:52:21;;;;;;;20.07;11.50;;;16.20;43.90;;;;;;5021852;28;20570;-73
2022/06/01 05:54:47;;;;;;;36.70;13.30;;;16.00;46.80;;;;;;5023730;28;20194;-73
2022/06/01 05:57:13;;;;;;;16.10;10.73;;;15.80;47.40;;;;;;5026893;28;20218;-73
2022/06/01 05:59:39;;;;;;;14.93;9.13;;;15.80;47.20;;;;;;5020866;28;20430;-73
2022/06/01 06:02:05;;;;;;;13.60;8.90;;;15.70;48.40;;;;;;5025403;28;20467;-73
2022/06/01 06:04:30;;;;;;;15.30;9.60;;;15.60;48.90;;;;;;5017707;28;20173;-73
2022/06/01 06:06:56;;;;;;;16.23;8.50;;;15.70;48.80;;;;;;5030857;28;20695;-72
2022/06/01 06:09:24;;;;;;;14.87;8.00;;;15.60;49.60;;;;;;5024114;28;20227;-73
2022/06/01 06:11:51;;;;;;;13.77;8.50;;;15.90;50.80;;;;;;5025517;28;20839;-73
2022/06/01 06:14:17;;;;;;;15.13;8.00;;;15.80;48.90;;;;;;5021054;28;20419;-72
2022/06/01 06:16:44;;;;;;;18.93;8.03;;;15.70;49.00;;;;;;5021484;28;20464;-73
2022/06/01 06:19:11;;;;;;;11.43;7.70;;;16.00;47.40;;;;;;5028599;28;20435;-73
2022/06/01 06:21:37;;;;;;;13.43;7.70;;;15.90;47.80;;;;;;5030708;28;20446;-72
2022/06/01 06:24:09;;;;;;;11.90;7.30;;;16.20;47.30;;;;;;5027568;28;21009;-73
2022/06/01 06:26:36;;;;;;;8.93;6.83;;;16.50;45.00;;;;;;5031826;28;20444;-73
2022/06/01 06:29:04;;;;;;;12.50;6.60;;;16.90;45.30;;;;;;5031612;28;20428;-73
2022/06/01 06:31:29;;;;;;;10.30;6.90;;;16.70;43.30;;;;;;5020007;28;20433;-73
2022/06/01 06:33:56;;;;;;;12.20;7.70;;;16.60;43.80;;;;;;5021059;28;20443;-76
2022/06/01 06:36:22;;;;;;;14.20;7.87;;;17.10;44.00;;;;;;5022743;28;20349;-73
2022/06/01 06:38:47;;;;;;;15.10;7.60;;;17.70;42.00;;;;;;5023161;28;20523;-73
2022/06/01 06:41:13;;;;;;;21.57;8.17;;;17.50;41.70;;;;;;5026737;28;20419;-72
2022/06/01 06:43:40;;;;;;;9.77;7.10;;;17.50;42.50;;;;;;5031984;28;20530;-73
2022/06/01 06:46:12;;;;;;;10.63;7.13;;;17.60;42.60;;;;;;5022017;28;20212;-73
2022/06/01 06:48:39;;;;;;;9.50;7.13;;;18.00;41.30;;;;;;5031821;28;20406;-73
2022/06/01 06:51:05;;;;;;;17.23;8.20;;;18.10;39.40;;;;;;5004344;28;20440;-73
2022/06/01 06:53:32;;;;;;;10.53;7.30;;;18.30;40.40;;;;;;5018815;28;20768;-74
2022/06/01 06:55:58;;;;;;;13.27;7.30;;;18.30;40.10;;;;;;5022095;28;20568;-72
2022/06/01 06:58:24;;;;;;;9.27;6.90;;;18.20;40.00;;;;;;5021692;28;20529;-74
2022/06/01 07:00:49;;;;;;;17.07;8.00;;;19.00;39.40;;;;;;5021671;28;20962;-73
2022/06/01 07:03:15;;;;;;;19.90;7.60;;;18.80;37.60;;;;;;5023205;28;20443;-75
2022/06/01 07:08:27;;;;;;;12.90;7.80;;;18.80;39.30;;;;;;5020291;28;20268;-74
2022/06/01 07:10:54;;;;;;;15.13;7.80;;;18.70;38.40;;;;;;5024070;28;20439;-76
2022/06/01 07:13:21;;;;;;;20.03;8.40;;;18.70;39.20;;;;;;5025173;28;20509;-75
2022/06/01 07:15:47;;;;;;;13.67;8.20;;;19.10;37.40;;;;;;5031237;28;20435;-74
2022/06/01 07:18:13;;;;;;;10.33;7.73;;;19.30;35.90;;;;;;5031570;28;20400;-74
2022/06/01 07:20:39;;;;;;;11.33;7.57;;;18.70;37.70;;;;;;5009271;28;20968;-72
2022/06/01 07:23:06;;;;;;;12.63;7.83;;;19.30;38.50;;;;;;5021385;28;20188;-73
2022/06/01 07:25:31;;;;;;;10.53;7.50;;;20.00;37.20;;;;;;5019934;28;20269;-74
2022/06/01 07:27:57;;;;;;;16.57;7.67;;;20.10;36.70;;;;;;5019845;28;20516;-74
2022/06/01 07:30:23;;;;;;;14.93;8.00;;;20.50;35.10;;;;;;5026489;28;20260;-71
2022/06/01 07:32:49;;;;;;;12.20;6.40;;;21.00;35.10;;;;;;5022498;28;20518;-73
2022/06/01 07:35:17;;;;;;;8.60;5.97;;;19.80;35.40;;;;;;5022989;28;20582;-73
2022/06/01 07:43:16;;;;;;;11.97;6.30;;;20.70;33.50;;;;;;5020436;28;20541;-74
2022/06/01 07:45:46;;;;;;;8.30;5.90;;;21.10;32.30;;;;;;5016544;28;20432;-74
2022/06/01 07:48:11;;;;;;;9.10;5.90;;;21.40;31.90;;;;;;5020311;28;20526;-73
2022/06/01 07:50:38;;;;;;;8.17;5.70;;;21.00;32.30;;;;;;5019180;28;20524;-74
2022/06/01 07:53:07;;;;;;;11.27;6.03;;;21.00;33.20;;;;;;5020611;28;20193;-75
2022/06/01 07:55:34;;;;;;;10.60;5.60;;;21.20;32.00;;;;;;5019032;28;20514;-76
2022/06/01 07:58:00;;;;;;;19.97;5.63;;;21.10;30.10;;;;;;5026400;28;20502;-75
2022/06/01 08:00:27;;;;;;;7.10;5.00;;;20.50;31.10;;;;;;5023593;28;20439;-75
2022/06/01 08:02:53;;;;;;;16.33;4.67;;;20.30;31.50;;;;;;5011377;28;20422;-77
2022/06/01 08:05:20;;;;;;;11.53;5.27;;;20.90;28.50;;;;;;5030358;28;20439;-75
2022/06/01 08:07:46;;;;;;;7.37;4.70;;;20.90;29.00;;;;;;5027316;28;20245;-74
2022/06/01 08:10:14;;;;;;;8.10;3.93;;;20.90;28.10;;;;;;5023452;28;20443;-74
2022/06/01 08:15:26;;;;;;;7.10;3.90;;;20.80;25.80;;;;;;5023222;28;20847;-74
2022/06/01 08:17:53;;;;;;;7.03;3.80;;;20.80;25.70;;;;;;5017949;28;20477;-73
2022/06/01 08:20:19;;;;;;;6.27;3.30;;;20.60;23.20;;;;;;5033065;28;20449;-73
2022/06/01 08:22:44;;;;;;;6.53;3.53;;;20.60;24.10;;;;;;5022306;28;20441;-73
2022/06/01 08:25:13;;;;;;;6.70;3.67;;;20.70;22.60;;;;;;5024216;28;20671;-74
2022/06/01 08:27:39;;;;;;;5.63;3.20;;;21.30;22.90;;;;;;5026472;28;20634;-74
2022/06/01 08:30:05;;;;;;;11.77;3.17;;;21.30;19.80;;;;;;5027692;28;20961;-75
2022/06/01 08:32:31;;;;;;;6.90;3.50;;;20.50;19.60;;;;;;5022455;28;20423;-73
2022/06/01 08:34:56;;;;;;;9.40;3.30;;;20.60;20.70;;;;;;5014512;28;20796;-73
2022/06/01 08:37:22;;;;;;;5.97;3.40;;;21.20;18.50;;;;;;5020629;28;20705;-73
2022/06/01 08:39:48;;;;;;;7.63;3.20;;;21.20;19.20;;;;;;5028893;28;20263;-74
2022/06/01 08:42:19;;;;;;;9.73;3.67;;;21.10;19.80;;;;;;5024909;28;20215;-75
2022/06/01 08:44:47;;;;;;;7.13;3.20;;;21.20;19.60;;;;;;5023578;28;20846;-74
2022/06/01 08:47:31;;;;;;;4.40;3.23;;;21.90;18.40;;;;;;5023764;28;20469;-74
2022/06/01 08:50:00;;;;;;;7.53;3.30;;;21.90;19.00;;;;;;5023803;28;20509;-74
2022/06/01 08:52:28;;;;;;;4.07;3.03;;;21.90;19.40;;;;;;5025582;28;20831;-73
2022/06/01 08:54:53;;;;;;;8.27;3.53;;;22.10;19.80;;;;;;5027452;28;20508;-75
2022/06/01 08:57:39;;;;;;;4.40;3.17;;;22.30;20.10;;;;;;5029173;28;20510;-75
2022/06/01 09:00:20;;;;;;;8.83;3.10;;;22.60;19.50;;;;;;5022336;28;20165;-74
2022/06/01 09:03:07;;;;;;;10.10;3.43;;;22.30;19.30;;;;;;5016013;28;20493;-75
2022/06/01 09:05:44;;;;;;;6.73;3.33;;;22.50;20.30;;;;;;5021824;28;20574;-74
2022/06/01 09:08:29;;;;;;;9.97;3.10;;;22.70;20.10;;;;;;5014253;28;20384;-74
2022/06/01 09:11:04;;;;;;;5.20;3.80;;;22.60;19.00;;;;;;5014678;28;20824;-74
2022/06/01 09:13:51;;;;;;;11.70;3.70;;;22.60;19.90;;;;;;5025085;28;20536;-73
2022/06/01 09:16:19;;;;;;;8.33;3.60;;;22.40;20.90;;;;;;5023081;28;20986;-75
2022/06/01 09:18:51;;;;;;;13.13;4.03;;;21.60;20.60;;;;;;5027800;28;20471;-74
2022/06/01 09:24:14;;;;;;;7.03;3.80;;;21.30;20.70;;;;;;5022909;28;20431;-74
2022/06/01 09:26:52;;;;;;;6.10;3.77;;;21.40;20.80;;;;;;5024134;28;20461;-74
2022/06/01 09:29:33;;;;;;;7.10;3.50;;;21.70;20.40;;;;;;5024029;28;20433;-73
2022/06/01 09:32:05;;;;;;;10.07;3.77;;;21.90;20.60;;;;;;5020087;28;20501;-74
2022/06/01 09:34:48;;;;;;;5.20;3.50;;;22.80;19.70;;;;;;5021466;28;21029;-74
2022/06/01 09:37:20;;;;;;;4.30;3.17;;;23.70;18.40;;;;;;5028899;28;21063;-74
2022/06/01 09:39:54;;;;;;;5.43;3.00;;;23.40;17.30;;;;;;5028105;28;20415;-73
2022/06/01 09:42:34;;;;;;;6.50;3.97;;;23.80;18.30;;;;;;5026894;28;20433;-73
2022/06/01 09:45:02;;;;;;;7.93;3.03;;;23.20;18.00;;;;;;5022103;28;20807;-74
2022/06/01 09:47:37;;;;;;;5.50;3.27;;;23.50;18.80;;;;;;5020984;28;20466;-75
2022/06/01 09:50:18;;;;;;;4.93;3.40;;;23.00;17.80;;;;;;5030621;28;20536;-75
2022/06/01 09:52:44;;;;;;;6.53;2.93;;;23.40;17.60;;;;;;5029788;28;20442;-76
2022/06/01 09:55:20;;;;;;;7.30;3.33;;;23.10;17.70;;;;;;5021561;28;20503;-76
2022/06/01 09:58:09;;;;;;;5.60;2.60;;;22.60;18.80;;;;;;5017818;28;20463;-74
2022/06/01 10:06:30;;;;;;;4.90;3.50;;;22.90;18.80;;;;;;5020820;28;20453;-75
2022/06/01 10:09:10;;;;;;;6.87;3.47;;;22.30;18.40;;;;;;5020167;28;20450;-75
2022/06/01 10:11:40;;;;;;;6.47;3.43;;;22.30;18.50;;;;;;5025792;28;20435;-75
2022/06/01 10:14:30;;;;;;;4.20;3.30;;;22.90;18.10;;;;;;5028065;28;20446;-75
2022/06/01 10:17:31;;;;;;;5.10;3.40;;;22.90;18.40;;;;;;5027853;28;20498;-75
2022/06/01 10:20:22;;;;;;;10.23;3.50;;;23.10;17.40;;;;;;5020753;28;20495;-74
2022/06/01 10:23:14;;;;;;;9.20;3.97;;;23.20;18.50;;;;;;5030024;28;20861;-76
2022/06/01 10:26:03;;;;;;;5.40;3.70;;;23.20;18.10;;;;;;5029995;28;20455;-75
2022/06/01 10:28:39;;;;;;;6.30;3.60;;;23.60;17.80;;;;;;5018800;28;20447;-77
2022/06/01 10:31:16;;;;;;;6.43;3.10;;;24.10;16.90;;;;;;5020505;28;20407;-75
2022/06/01 10:33:48;;;;;;;6.97;3.70;;;23.40;17.70;;;;;;5014440;28;20514;-75
2022/06/01 10:36:21;;;;;;;8.80;3.33;;;23.10;18.60;;;;;;5020941;28;20466;-75
2022/06/01 10:38:55;;;;;;;6.63;3.13;;;23.10;17.60;;;;;;5022139;28;20445;-75
2022/06/01 10:41:47;;;;;;;4.93;3.20;;;23.10;17.90;;;;;;5022268;28;21011;-75
2022/06/01 10:44:29;;;;;;;8.93;3.23;;;23.40;16.90;;;;;;4994987;28;20782;-75
2022/06/01 10:47:05;;;;;;;7.50;3.40;;;23.30;18.60;;;;;;5007659;28;20455;-75
2022/06/01 10:50:04;;;;;;;5.37;3.23;;;23.40;17.40;;;;;;5026416;28;20771;-74
2022/06/01 10:52:54;;;;;;;13.20;3.70;;;23.60;17.60;;;;;;5019670;28;20435;-76
2022/06/01 10:55:31;;;;;;;7.50;3.40;;;22.70;17.60;;;;;;5022595;28;20435;-77
2022/06/01 10:57:59;;;;;;;14.10;3.57;;;22.70;17.20;;;;;;5025897;28;20466;-76
2022/06/01 11:00:33;;;;;;;6.47;3.80;;;23.00;17.80;;;;;;5023262;28;20439;-77
2022/06/01 11:03:27;;;;;;;5.10;2.90;;;22.80;17.30;;;;;;5034093;28;20408;-75
2022/06/01 11:06:22;;;;;;;5.80;3.03;;;22.90;17.40;;;;;;5023327;28;20461;-74
2022/06/01 11:09:09;;;;;;;6.50;3.20;;;23.20;18.00;;;;;;4987083;28;20424;-75
2022/06/01 11:12:05;;;;;;;5.20;3.13;;;24.40;16.80;;;;;;5022204;28;20427;-75
2022/06/01 11:14:57;;;;;;;6.43;3.57;;;24.10;16.20;;;;;;5020355;28;20435;-74
2022/06/01 11:17:35;;;;;;;4.50;3.23;;;23.20;17.60;;;;;;5031032;28;20489;-76
2022/06/01 11:20:19;;;;;;;4.10;3.10;;;23.80;16.80;;;;;;5023775;28;20502;-76
2022/06/01 11:22:52;;;;;;;16.13;3.00;;;23.90;15.40;;;;;;5027192;28;20850;-76
2022/06/01 11:25:28;;;;;;;5.63;3.03;;;23.40;15.10;;;;;;5026982;28;20431;-76
2022/06/01 11:27:56;;;;;;;4.03;2.90;;;23.60;15.60;;;;;;5019824;28;20895;-73
2022/06/01 11:30:26;;;;;;;10.37;3.40;;;23.40;14.70;;;;;;5028943;28;20793;-76
2022/06/01 11:33:09;;;;;;;11.53;3.30;;;23.30;15.80;;;;;;5031114;28;20411;-76
2022/06/01 11:35:39;;;;;;;6.40;3.20;;;23.70;15.40;;;;;;5030613;28;20474;-77
2022/06/01 11:38:11;;;;;;;4.17;3.07;;;24.30;15.60;;;;;;5032681;28;20446;-76
2022/06/01 11:40:57;;;;;;;7.97;3.23;;;24.70;14.00;;;;;;5035268;28;20916;-75
2022/06/01 11:43:33;;;;;;;7.70;3.10;;;23.70;15.80;;;;;;5035270;28;20878;-76
2022/06/01 11:46:03;;;;;;;6.50;3.57;;;22.10;16.10;;;;;;5035097;28;20784;-77
2022/06/01 11:48:32;;;;;;;3.57;2.90;;;23.20;15.90;;;;;;5035290;28;20411;-75
2022/06/01 11:51:17;;;;;;;4.80;2.87;;;24.00;15.50;;;;;;5017271;28;20450;-76
2022/06/01 11:54:00;;;;;;;5.03;2.90;;;24.40;14.40;;;;;;5034883;28;20407;-77
2022/06/01 11:56:30;;;;;;;3.60;2.90;;;24.40;14.40;;;;;;5035095;28;20493;-75
2022/06/01 11:59:03;;;;;;;4.00;2.73;;;24.20;15.20;;;;;;5034939;28;20423;-76
2022/06/01 12:01:33;;;;;;;8.10;3.30;;;23.60;16.30;;;;;;5035015;28;20898;-76
2022/06/01 12:04:22;;;;;;;3.93;3.20;;;23.40;15.70;;;;;;5016951;28;20423;-76
2022/06/01 12:06:59;;;;;;;8.83;3.30;;;23.30;16.00;;;;;;5034566;28;20450;-76
2022/06/01 12:09:35;;;;;;;6.80;3.00;;;23.80;16.40;;;;;;5034691;28;20941;-76
2022/06/01 12:12:01;;;;;;;9.70;3.67;;;23.90;15.80;;;;;;5034703;28;20410;-76
2022/06/01 12:14:57;;;;;;;5.50;2.90;;;24.00;15.40;;;;;;5016934;28;20498;-75
2022/06/01 12:17:25;;;;;;;6.57;3.10;;;23.70;15.60;;;;;;4992327;28;20227;-76
2022/06/01 12:20:12;;;;;;;6.13;3.50;;;23.20;14.90;;;;;;5032779;28;20418;-76
2022/06/01 12:28:42;;;;;;;5.43;3.40;;;24.10;15.60;;;;;;5024527;28;20427;-76
2022/06/01 12:31:16;;;;;;;5.03;3.00;;;23.80;16.50;;;;;;5022074;28;20414;-76
2022/06/01 12:34:04;;;;;;;5.07;3.30;;;24.60;15.60;;;;;;5017294;28;20901;-76
2022/06/01 12:36:51;;;;;;;10.67;3.50;;;25.10;15.90;;;;;;5033116;28;20520;-76
2022/06/01 12:39:33;;;;;;;5.30;3.97;;;25.10;14.00;;;;;;5033567;28;20425;-76
2022/06/01 12:42:09;;;;;;;4.80;3.20;;;24.50;15.50;;;;;;5034076;28;20778;-77
2022/06/01 12:44:35;;;;;;;4.23;3.40;;;26.30;14.10;;;;;;5033980;28;20863;-74
2022/06/01 12:47:01;;;;;;;4.17;3.00;;;25.10;15.20;;;;;;5031228;28;20462;-76
2022/06/01 12:49:45;;;;;;;4.40;3.10;;;25.20;15.40;;;;;;5022412;28;20470;-76
2022/06/01 12:52:17;;;;;;;4.70;2.83;;;25.80;13.90;;;;;;5006045;28;20428;-77
2022/06/01 12:54:52;;;;;;;3.87;3.00;;;26.40;13.70;;;;;;5024217;28;20863;-76
2022/06/01 12:57:37;;;;;;;6.10;3.10;;;27.10;13.30;;;;;;5031071;28;20477;-75
2022/06/01 13:00:13;;;;;;;5.50;2.83;;;25.10;14.70;;;;;;5031146;28;20776;-77
2022/06/01 13:02:41;;;;;;;4.70;3.50;;;24.60;15.50;;;;;;5022748;28;20420;-76
2022/06/01 13:05:11;;;;;;;6.93;3.80;;;23.90;16.50;;;;;;5025636;28;20434;-75
2022/06/01 13:07:41;;;;;;;4.50;3.13;;;23.50;16.20;;;;;;5028526;28;20454;-74
2022/06/01 13:10:09;;;;;;;5.30;3.20;;;23.80;15.90;;;;;;5030422;28;20454;-74
2022/06/01 13:12:37;;;;;;;4.73;3.43;;;24.70;16.00;;;;;;5029470;28;20429;-75
2022/06/01 13:15:21;;;;;;;4.00;2.90;;;25.40;14.30;;;;;;5030997;28;20439;-74
2022/06/01 13:17:57;;;;;;;6.33;3.47;;;25.10;15.30;;;;;;5032032;28;20879;-75
2022/06/01 13:20:35;;;;;;;12.13;3.20;;;24.90;15.70;;;;;;5024851;28;20469;-75
2022/06/01 13:23:05;;;;;;;9.93;3.60;;;24.50;15.50;;;;;;5031248;28;20548;-75
2022/06/01 13:25:34;;;;;;;4.70;3.07;;;25.30;15.40;;;;;;5027257;28;20448;-75
2022/06/01 13:28:01;;;;;;;7.83;3.20;;;25.30;16.00;;;;;;5030179;28;20472;-75
2022/06/01 13:30:32;;;;;;;9.23;3.47;;;25.90;14.80;;;;;;5028149;28;20440;-75
2022/06/01 13:32:58;;;;;;;4.20;3.13;;;26.90;14.70;;;;;;5027402;28;20488;-75